Lindseyville, Kentucky
Current Conditions -  °F | °C
As of 6:12 AM on Thursday 23 Oct 2014 (Local Time) from KBWG Reporting Station
Moderate Fog Moderate Fog  
Wind Chill: 36°   Ceiling: 200
Heat Index: 36°   Visibility: 0.5mi
Dew Point: 34°   Wind: 0mph
Humidity: 93%   Direction: NA
Pressure: 30.25"   Gusts: NA
Location:  37.24°N, 86.29°W
Report Text: KBWG 231112Z AUTO 00000KT 1/2SM FG VV002 02/01 A3025 RMK AO2 T00220011
Loading
Personal Weather Stations






























Interactive Weather Map
Tropical Storm Tracking
New forecast layout! Learn more

10-Day Weather Forecast

Advertisements
Track Severe Weather on mobile